SXS7EL LTCG-LTBJ
Flight info
| Callsign | SXS7EL |
|---|---|
| Flight time | 1h 42m |
| Altitude | 38000 |
| Route | ARLAT UW71 BAG/N0456F390 UW77 HALIL/N0457F380 UR32 NESET UT54 KULAR |
| Aircraft | B38M/M-SADE2E3GIJ4J7RW/LB1D1 |
Departure
| Time | 2026-04-30 17:53 |
|---|---|
| Airport | Trabzon International Airport (LTCG) |
Arrival
| Time | 2026-04-30 19:36 |
|---|---|
| Airport | Adnan Menderes International Airport (LTBJ) |
| Time | Latitude | Longitude | Altitude | Speed | Heading |
|---|---|---|---|---|---|
| 2026-04-30 17:39 | 40.99508 | 39.78273 | 112 ft | 0 kts | 202° |
| 2026-04-30 17:46 | 40.99559 | 39.78326 | 112 ft | 2 kts | 266° |
| 2026-04-30 17:47 | 40.99556 | 39.78352 | 112 ft | 0 kts | 292° |
| 2026-04-30 17:49 | 40.99562 | 39.78331 | 112 ft | 5 kts | 290° |
| 2026-04-30 17:50 | 40.99697 | 39.77888 | 113 ft | 13 kts | 292° |
| 2026-04-30 17:51 | 40.99792 | 39.77579 | 113 ft | 10 kts | 292° |
| 2026-04-30 17:52 | 40.99942 | 39.77558 | 113 ft | 7 kts | 106° |
| 2026-04-30 17:53 | 40.98701 | 39.81763 | 1151 ft | 165 kts | 100° |
| 2026-04-30 17:54 | 40.97794 | 39.88769 | 2880 ft | 223 kts | 105° |
| 2026-04-30 17:55 | 40.96071 | 39.97982 | 5070 ft | 265 kts | 98° |
| 2026-04-30 17:56 | 40.99790 | 40.06006 | 7739 ft | 283 kts | 21° |
| 2026-04-30 17:57 | 41.05547 | 40.05177 | 9833 ft | 288 kts | 322° |
| 2026-04-30 17:58 | 41.08141 | 39.98031 | 11164 ft | 316 kts | 265° |
| 2026-04-30 17:59 | 41.08267 | 39.85257 | 12666 ft | 366 kts | 272° |
| 2026-04-30 18:00 | 41.08601 | 39.71240 | 15480 ft | 374 kts | 270° |
| 2026-04-30 18:00 | 41.08752 | 39.60617 | 17495 ft | 380 kts | 270° |
| 2026-04-30 18:01 | 41.08852 | 39.53426 | 18680 ft | 387 kts | 270° |
| 2026-04-30 18:02 | 41.08367 | 39.42551 | 20325 ft | 396 kts | 263° |
| 2026-04-30 18:02 | 41.07266 | 39.31393 | 21949 ft | 404 kts | 262° |
| 2026-04-30 18:03 | 41.06274 | 39.20177 | 23458 ft | 411 kts | 263° |
| 2026-04-30 18:04 | 41.06111 | 39.08757 | 24905 ft | 418 kts | 274° |
| 2026-04-30 18:05 | 41.07547 | 38.93204 | 26702 ft | 428 kts | 276° |
| 2026-04-30 18:06 | 41.09036 | 38.77491 | 28650 ft | 428 kts | 276° |
| 2026-04-30 18:07 | 41.10420 | 38.61989 | 30753 ft | 421 kts | 275° |
| 2026-04-30 18:08 | 41.11400 | 38.50402 | 32093 ft | 417 kts | 275° |
| 2026-04-30 18:09 | 41.12664 | 38.35117 | 33764 ft | 411 kts | 275° |
| 2026-04-30 18:10 | 41.13921 | 38.19780 | 35179 ft | 410 kts | 274° |
| 2026-04-30 18:11 | 41.15157 | 38.04584 | 36410 ft | 406 kts | 274° |
| 2026-04-30 18:11 | 41.16062 | 37.93277 | 37372 ft | 405 kts | 274° |
| 2026-04-30 18:12 | 41.16973 | 37.82028 | 38088 ft | 407 kts | 275° |
| 2026-04-30 18:13 | 41.17610 | 37.74586 | 38086 ft | 406 kts | 275° |
| 2026-04-30 18:14 | 41.19091 | 37.55671 | 38089 ft | 405 kts | 272° |
| 2026-04-30 18:15 | 41.20712 | 37.32484 | 38093 ft | 408 kts | 274° |
| 2026-04-30 18:16 | 41.21891 | 37.16629 | 38090 ft | 408 kts | 274° |
| 2026-04-30 18:17 | 41.22535 | 37.08398 | 38090 ft | 409 kts | 274° |
| 2026-04-30 18:18 | 41.23524 | 36.95630 | 38096 ft | 409 kts | 274° |
| 2026-04-30 18:18 | 41.24129 | 36.87659 | 38101 ft | 408 kts | 274° |
| 2026-04-30 18:19 | 41.24694 | 36.80148 | 38095 ft | 408 kts | 274° |
| 2026-04-30 18:19 | 41.25293 | 36.72101 | 38097 ft | 407 kts | 274° |
| 2026-04-30 18:20 | 41.25876 | 36.64184 | 38098 ft | 408 kts | 274° |
| 2026-04-30 18:20 | 41.26138 | 36.56358 | 38474 ft | 405 kts | 266° |
| 2026-04-30 18:20 | 41.25784 | 36.52370 | 38790 ft | 403 kts | 259° |
| 2026-04-30 18:21 | 41.25001 | 36.48293 | 39080 ft | 402 kts | 253° |
| 2026-04-30 18:21 | 41.23949 | 36.44383 | 39315 ft | 402 kts | 250° |
| 2026-04-30 18:21 | 41.22779 | 36.40434 | 39527 ft | 403 kts | 249° |
| 2026-04-30 18:21 | 41.21666 | 36.36727 | 39756 ft | 402 kts | 249° |
| 2026-04-30 18:22 | 41.20636 | 36.33213 | 39935 ft | 403 kts | 249° |
| 2026-04-30 18:22 | 41.18387 | 36.25221 | 40066 ft | 405 kts | 250° |
| 2026-04-30 18:22 | 41.17286 | 36.21270 | 40065 ft | 404 kts | 250° |
| 2026-04-30 18:23 | 41.15079 | 36.13402 | 40069 ft | 402 kts | 250° |
| 2026-04-30 18:23 | 41.12836 | 36.05471 | 40046 ft | 402 kts | 250° |
| 2026-04-30 18:24 | 41.09459 | 35.93597 | 40049 ft | 402 kts | 250° |
| 2026-04-30 18:25 | 41.07314 | 35.86089 | 40057 ft | 402 kts | 250° |
| 2026-04-30 18:25 | 41.04126 | 35.74968 | 40049 ft | 402 kts | 250° |
| 2026-04-30 18:26 | 41.00957 | 35.63968 | 40049 ft | 403 kts | 250° |
| 2026-04-30 18:27 | 40.97923 | 35.53468 | 40037 ft | 403 kts | 250° |
| 2026-04-30 18:28 | 40.94850 | 35.42888 | 40031 ft | 403 kts | 250° |
| 2026-04-30 18:28 | 40.91739 | 35.32217 | 40027 ft | 405 kts | 250° |
| 2026-04-30 18:29 | 40.87555 | 35.17938 | 40034 ft | 406 kts | 250° |
| 2026-04-30 18:30 | 40.83394 | 35.03807 | 40030 ft | 406 kts | 250° |
| 2026-04-30 18:31 | 40.80304 | 34.93357 | 40032 ft | 406 kts | 250° |
| 2026-04-30 18:32 | 40.77175 | 34.82843 | 40033 ft | 406 kts | 250° |
| 2026-04-30 18:33 | 40.73871 | 34.71751 | 40029 ft | 408 kts | 250° |
| 2026-04-30 18:33 | 40.70401 | 34.60169 | 40034 ft | 408 kts | 250° |
| 2026-04-30 18:34 | 40.66968 | 34.48759 | 40033 ft | 408 kts | 250° |
| 2026-04-30 18:35 | 40.64697 | 34.41239 | 40037 ft | 408 kts | 250° |
| 2026-04-30 18:35 | 40.62422 | 34.33735 | 40035 ft | 408 kts | 249° |
| 2026-04-30 18:36 | 40.59012 | 34.22516 | 40036 ft | 408 kts | 249° |
| 2026-04-30 18:37 | 40.55642 | 34.11472 | 40033 ft | 408 kts | 249° |
| 2026-04-30 18:37 | 40.53331 | 34.03928 | 40025 ft | 409 kts | 249° |
| 2026-04-30 18:38 | 40.51043 | 33.96478 | 40022 ft | 409 kts | 249° |
| 2026-04-30 18:38 | 40.48792 | 33.89168 | 40018 ft | 409 kts | 249° |
| 2026-04-30 18:39 | 40.46417 | 33.81476 | 40023 ft | 409 kts | 249° |
| 2026-04-30 18:39 | 40.43975 | 33.73598 | 40020 ft | 408 kts | 249° |
| 2026-04-30 18:40 | 40.41544 | 33.65773 | 40029 ft | 409 kts | 249° |
| 2026-04-30 18:40 | 40.39150 | 33.58087 | 40034 ft | 408 kts | 249° |
| 2026-04-30 18:41 | 40.36811 | 33.50599 | 40044 ft | 409 kts | 249° |
| 2026-04-30 18:41 | 40.34606 | 33.43554 | 40042 ft | 410 kts | 249° |
| 2026-04-30 18:42 | 40.32171 | 33.35804 | 40035 ft | 409 kts | 249° |
| 2026-04-30 18:42 | 40.28529 | 33.24256 | 40042 ft | 410 kts | 249° |
| 2026-04-30 18:45 | 40.07042 | 32.95239 | 40022 ft | 423 kts | 218° |
| 2026-04-30 18:45 | 40.04575 | 32.93076 | 40020 ft | 424 kts | 218° |
| 2026-04-30 18:46 | 39.99622 | 32.88718 | 40021 ft | 425 kts | 218° |
| 2026-04-30 18:46 | 39.94029 | 32.83793 | 40023 ft | 424 kts | 218° |
| 2026-04-30 18:47 | 39.88400 | 32.78840 | 40031 ft | 423 kts | 218° |
| 2026-04-30 18:47 | 39.82837 | 32.73952 | 40032 ft | 423 kts | 218° |
| 2026-04-30 18:48 | 39.77760 | 32.69495 | 40030 ft | 424 kts | 218° |
| 2026-04-30 18:48 | 39.72754 | 32.65108 | 40027 ft | 425 kts | 218° |
| 2026-04-30 18:49 | 39.67765 | 32.60748 | 40030 ft | 424 kts | 218° |
| 2026-04-30 18:49 | 39.62755 | 32.56379 | 40030 ft | 425 kts | 218° |
| 2026-04-30 18:50 | 39.57766 | 32.52036 | 40031 ft | 426 kts | 218° |
| 2026-04-30 18:50 | 39.52836 | 32.47749 | 40028 ft | 426 kts | 218° |
| 2026-04-30 18:51 | 39.47861 | 32.43430 | 40027 ft | 425 kts | 218° |
| 2026-04-30 18:51 | 39.42866 | 32.39073 | 40026 ft | 424 kts | 220° |
| 2026-04-30 18:52 | 39.38600 | 32.33789 | 40023 ft | 419 kts | 237° |
| 2026-04-30 18:52 | 39.35693 | 32.27245 | 40019 ft | 417 kts | 245° |
| 2026-04-30 18:53 | 39.33114 | 32.20287 | 40013 ft | 416 kts | 246° |
| 2026-04-30 18:53 | 39.30552 | 32.13253 | 40006 ft | 416 kts | 246° |
| 2026-04-30 18:54 | 39.28010 | 32.06383 | 40005 ft | 416 kts | 246° |
| 2026-04-30 18:54 | 39.25341 | 31.99256 | 40009 ft | 417 kts | 246° |
| 2026-04-30 18:55 | 39.22647 | 31.92106 | 40020 ft | 417 kts | 246° |
| 2026-04-30 18:55 | 39.18496 | 31.81152 | 40030 ft | 416 kts | 246° |
| 2026-04-30 18:56 | 39.14595 | 31.70888 | 40035 ft | 417 kts | 246° |
| 2026-04-30 18:57 | 39.10544 | 31.60258 | 40037 ft | 417 kts | 246° |
| 2026-04-30 18:57 | 39.07944 | 31.53460 | 40040 ft | 417 kts | 246° |
| 2026-04-30 18:58 | 39.04060 | 31.43335 | 40038 ft | 417 kts | 246° |
| 2026-04-30 18:59 | 38.99707 | 31.32031 | 40043 ft | 417 kts | 245° |
| 2026-04-30 19:00 | 38.93954 | 31.17150 | 40055 ft | 417 kts | 245° |
| 2026-04-30 19:01 | 38.88250 | 31.02477 | 40060 ft | 417 kts | 245° |
| 2026-04-30 19:02 | 38.84010 | 30.91610 | 40054 ft | 416 kts | 245° |
| 2026-04-30 19:03 | 38.78313 | 30.77067 | 40039 ft | 416 kts | 245° |
| 2026-04-30 19:04 | 38.72615 | 30.62175 | 40061 ft | 416 kts | 250° |
| 2026-04-30 19:05 | 38.69269 | 30.46165 | 40077 ft | 415 kts | 259° |
| 2026-04-30 19:06 | 38.66435 | 30.30131 | 40054 ft | 416 kts | 258° |
| 2026-04-30 19:06 | 38.64282 | 30.18354 | 39806 ft | 417 kts | 257° |
| 2026-04-30 19:07 | 38.62823 | 30.10460 | 39187 ft | 411 kts | 257° |
| 2026-04-30 19:07 | 38.62128 | 30.06701 | 38896 ft | 412 kts | 258° |
| 2026-04-30 19:08 | 38.60674 | 29.98859 | 38282 ft | 415 kts | 258° |
| 2026-04-30 19:08 | 38.59218 | 29.91055 | 37333 ft | 417 kts | 258° |
| 2026-04-30 19:08 | 38.58491 | 29.87172 | 36738 ft | 415 kts | 258° |
| 2026-04-30 19:09 | 38.57058 | 29.79534 | 35787 ft | 416 kts | 258° |
| 2026-04-30 19:09 | 38.56320 | 29.75612 | 35333 ft | 418 kts | 257° |
| 2026-04-30 19:09 | 38.55552 | 29.71542 | 34866 ft | 419 kts | 258° |
| 2026-04-30 19:10 | 38.53983 | 29.63252 | 33822 ft | 421 kts | 258° |
| 2026-04-30 19:10 | 38.52568 | 29.55810 | 32843 ft | 426 kts | 258° |
| 2026-04-30 19:11 | 38.51798 | 29.51768 | 32310 ft | 427 kts | 257° |
| 2026-04-30 19:11 | 38.50285 | 29.43841 | 31271 ft | 430 kts | 257° |
| 2026-04-30 19:11 | 38.49530 | 29.39901 | 30759 ft | 432 kts | 257° |
| 2026-04-30 19:12 | 38.48739 | 29.35778 | 30225 ft | 435 kts | 257° |
| 2026-04-30 19:12 | 38.47984 | 29.31845 | 29716 ft | 437 kts | 257° |
| 2026-04-30 19:12 | 38.47192 | 29.27736 | 29183 ft | 439 kts | 257° |
| 2026-04-30 19:13 | 38.45639 | 29.19699 | 28049 ft | 442 kts | 257° |
| 2026-04-30 19:13 | 38.44064 | 29.11588 | 26911 ft | 447 kts | 257° |
| 2026-04-30 19:13 | 38.43274 | 29.07532 | 26355 ft | 447 kts | 257° |
| 2026-04-30 19:14 | 38.42511 | 29.03629 | 25814 ft | 436 kts | 257° |
| 2026-04-30 19:14 | 38.41758 | 28.99782 | 25269 ft | 426 kts | 257° |
| 2026-04-30 19:14 | 38.41032 | 28.96076 | 24740 ft | 416 kts | 257° |
| 2026-04-30 19:14 | 38.40322 | 28.92460 | 24246 ft | 407 kts | 257° |
| 2026-04-30 19:15 | 38.39613 | 28.88850 | 23748 ft | 402 kts | 257° |
| 2026-04-30 19:15 | 38.38227 | 28.81810 | 22785 ft | 402 kts | 257° |
| 2026-04-30 19:15 | 38.37538 | 28.78313 | 22308 ft | 399 kts | 257° |
| 2026-04-30 19:16 | 38.36863 | 28.74900 | 21841 ft | 395 kts | 257° |
| 2026-04-30 19:16 | 38.36156 | 28.71334 | 21355 ft | 391 kts | 257° |
| 2026-04-30 19:16 | 38.34804 | 28.64521 | 20411 ft | 386 kts | 257° |
| 2026-04-30 19:17 | 38.34144 | 28.61205 | 19999 ft | 382 kts | 256° |
| 2026-04-30 19:17 | 38.32830 | 28.54616 | 19192 ft | 378 kts | 256° |
| 2026-04-30 19:17 | 38.32174 | 28.51332 | 18819 ft | 381 kts | 256° |
| 2026-04-30 19:18 | 38.31073 | 28.45825 | 18135 ft | 371 kts | 256° |
| 2026-04-30 19:18 | 38.30211 | 28.41528 | 17584 ft | 369 kts | 256° |
| 2026-04-30 19:18 | 38.29541 | 28.38201 | 17164 ft | 366 kts | 256° |
| 2026-04-30 19:19 | 38.28908 | 28.35058 | 16767 ft | 364 kts | 256° |
| 2026-04-30 19:19 | 38.28262 | 28.31861 | 16358 ft | 363 kts | 255° |
| 2026-04-30 19:19 | 38.27014 | 28.25701 | 15599 ft | 357 kts | 255° |
| 2026-04-30 19:20 | 38.26391 | 28.22630 | 15219 ft | 346 kts | 255° |
| 2026-04-30 19:20 | 38.25793 | 28.19688 | 14840 ft | 337 kts | 255° |
| 2026-04-30 19:20 | 38.24648 | 28.14066 | 14088 ft | 320 kts | 255° |
| 2026-04-30 19:21 | 38.24084 | 28.11300 | 13719 ft | 313 kts | 255° |
| 2026-04-30 19:21 | 38.23003 | 28.06007 | 12999 ft | 301 kts | 255° |
| 2026-04-30 19:22 | 38.21960 | 28.00913 | 12319 ft | 290 kts | 255° |
| 2026-04-30 19:22 | 38.20456 | 27.93589 | 11350 ft | 275 kts | 255° |
| 2026-04-30 19:23 | 38.19045 | 27.86742 | 10607 ft | 257 kts | 255° |
| 2026-04-30 19:24 | 38.18155 | 27.82428 | 10349 ft | 247 kts | 255° |
| 2026-04-30 19:24 | 38.17715 | 27.80298 | 10109 ft | 246 kts | 255° |
| 2026-04-30 19:24 | 38.16827 | 27.76014 | 9604 ft | 243 kts | 255° |
| 2026-04-30 19:25 | 38.15436 | 27.69325 | 8802 ft | 241 kts | 255° |
| 2026-04-30 19:26 | 38.14582 | 27.65224 | 8309 ft | 239 kts | 255° |
| 2026-04-30 19:26 | 38.13720 | 27.61093 | 7805 ft | 238 kts | 255° |
| 2026-04-30 19:26 | 38.13279 | 27.58991 | 7567 ft | 252 kts | 255° |
| 2026-04-30 19:27 | 38.12348 | 27.54554 | 7071 ft | 257 kts | 255° |
| 2026-04-30 19:27 | 38.11423 | 27.50047 | 6557 ft | 256 kts | 256° |
| 2026-04-30 19:28 | 38.10957 | 27.47715 | 6301 ft | 255 kts | 256° |
| 2026-04-30 19:28 | 38.10028 | 27.43073 | 5775 ft | 253 kts | 256° |
| 2026-04-30 19:29 | 38.09116 | 27.38562 | 5256 ft | 253 kts | 256° |
| 2026-04-30 19:29 | 38.08643 | 27.36235 | 4989 ft | 252 kts | 256° |
| 2026-04-30 19:30 | 38.08072 | 27.29667 | 4236 ft | 243 kts | 286° |
| 2026-04-30 19:30 | 38.08061 | 27.25500 | 3883 ft | 225 kts | 256° |
| 2026-04-30 19:31 | 38.07467 | 27.21874 | 3873 ft | 195 kts | 275° |
| 2026-04-30 19:31 | 38.08100 | 27.20340 | 3812 ft | 199 kts | 322° |
| 2026-04-30 19:31 | 38.10861 | 27.20307 | 3514 ft | 203 kts | 14° |
| 2026-04-30 19:32 | 38.12264 | 27.20604 | 3302 ft | 199 kts | 357° |
| 2026-04-30 19:32 | 38.13646 | 27.20350 | 3089 ft | 198 kts | 345° |
| 2026-04-30 19:32 | 38.14995 | 27.19945 | 2805 ft | 199 kts | 345° |
| 2026-04-30 19:32 | 38.16376 | 27.19538 | 2533 ft | 199 kts | 345° |
| 2026-04-30 19:33 | 38.17757 | 27.19136 | 2450 ft | 186 kts | 346° |
| 2026-04-30 19:33 | 38.19040 | 27.18783 | 2150 ft | 188 kts | 347° |
| 2026-04-30 19:33 | 38.20267 | 27.18434 | 1914 ft | 173 kts | 345° |
| 2026-04-30 19:33 | 38.21432 | 27.18073 | 1612 ft | 164 kts | 345° |
| 2026-04-30 19:34 | 38.22493 | 27.17763 | 1340 ft | 155 kts | 345° |
| 2026-04-30 19:34 | 38.23561 | 27.17426 | 1093 ft | 149 kts | 343° |
| 2026-04-30 19:34 | 38.25582 | 27.16810 | 771 ft | 149 kts | 346° |
| 2026-04-30 19:35 | 38.26584 | 27.16498 | 638 ft | 145 kts | 347° |
| 2026-04-30 19:35 | 38.27556 | 27.16197 | 484 ft | 143 kts | 348° |
| 2026-04-30 19:35 | 38.28518 | 27.15904 | 402 ft | 127 kts | 347° |
| 2026-04-30 19:35 | 38.29107 | 27.15733 | 409 ft | 53 kts | 345° |
| 2026-04-30 19:36 | 38.29374 | 27.15658 | 411 ft | 20 kts | 346° |
| 2026-04-30 19:36 | 38.29418 | 27.15578 | 410 ft | 10 kts | 261° |
| 2026-04-30 19:36 | 38.29377 | 27.15371 | 407 ft | 12 kts | 258° |
| 2026-04-30 19:37 | 38.29359 | 27.15263 | 405 ft | 12 kts | 257° |
| 2026-04-30 19:37 | 38.29342 | 27.15155 | 403 ft | 8 kts | 282° |
| 2026-04-30 19:37 | 38.29390 | 27.15117 | 403 ft | 8 kts | 345° |
| 2026-04-30 19:37 | 38.29443 | 27.15100 | 403 ft | 7 kts | 346° |
| 2026-04-30 19:38 | 38.29464 | 27.15114 | 403 ft | 4 kts | 85° |
| 2026-04-30 19:38 | 38.29471 | 27.15150 | 403 ft | 4 kts | 76° |
| 2026-04-30 19:38 | 38.29476 | 27.15179 | 404 ft | 1 kts | 76° |
| 2026-04-30 19:38 | 38.29477 | 27.15181 | 404 ft | 0 kts | 76° |